Time;durP1;ratioP1;P1;durP2;ratioP2;P2;SDS_P1;SDS_P2;PMS_P1;PMS_P2;Temp;Humidity;BMP_temperature;BMP_pressure;BME280_temperature;BME280_humidity;BME280_pressure;Samples;Min_cycle;Max_cycle;Signal;HPM_P1;HPM_P2
2024/02/25 00:00:19;;;;;;;1.48;1.20;;;6.80;85.50;;;;;;5048811;28;20396;-64
2024/02/25 00:02:44;;;;;;;1.50;1.20;;;6.90;85.50;;;;;;5047290;28;20699;-65
2024/02/25 00:05:10;;;;;;;1.25;1.10;;;6.90;85.50;;;;;;5048710;28;20029;-64
2024/02/25 00:07:35;;;;;;;3.13;1.20;;;6.90;85.30;;;;;;5045662;28;20061;-64
2024/02/25 00:10:02;;;;;;;1.35;1.10;;;6.90;85.30;;;;;;5049200;28;20082;-66
2024/02/25 00:12:28;;;;;;;1.20;1.10;;;6.90;85.40;;;;;;5045585;28;20021;-65
2024/02/25 00:14:53;;;;;;;2.92;1.05;;;6.90;85.50;;;;;;5045829;28;20021;-64
2024/02/25 00:17:19;;;;;;;1.48;1.30;;;6.90;85.40;;;;;;5043409;28;20033;-64
2024/02/25 00:19:45;;;;;;;1.48;1.10;;;6.90;85.40;;;;;;5046791;28;20036;-65
2024/02/25 00:22:10;;;;;;;2.05;1.20;;;6.90;85.30;;;;;;5046368;28;20070;-65
2024/02/25 00:24:36;;;;;;;1.25;1.00;;;6.90;85.30;;;;;;5043704;28;20021;-64
2024/02/25 00:27:01;;;;;;;1.27;1.17;;;6.90;85.40;;;;;;5044295;28;20021;-65
2024/02/25 00:29:27;;;;;;;1.23;1.08;;;6.90;85.40;;;;;;5044457;28;20032;-64
2024/02/25 00:31:52;;;;;;;2.78;1.20;;;6.80;85.70;;;;;;5046471;28;20042;-65
2024/02/25 00:34:18;;;;;;;1.20;1.10;;;6.80;85.80;;;;;;5048926;28;20127;-66
2024/02/25 00:36:46;;;;;;;1.10;1.00;;;6.90;86.10;;;;;;5046982;28;20060;-66
2024/02/25 00:39:11;;;;;;;0.95;0.90;;;6.90;86.10;;;;;;5044857;28;20031;-65
2024/02/25 00:41:37;;;;;;;1.00;0.90;;;6.90;86.10;;;;;;5046716;28;20104;-66
2024/02/25 00:44:02;;;;;;;1.08;1.00;;;6.90;86.10;;;;;;5048434;28;20503;-66
2024/02/25 00:46:28;;;;;;;1.70;1.00;;;6.90;86.10;;;;;;5048348;28;20063;-66
2024/02/25 00:48:54;;;;;;;1.48;0.82;;;6.90;86.10;;;;;;5047537;28;20112;-66
2024/02/25 00:51:19;;;;;;;0.90;0.90;;;6.90;86.20;;;;;;5044341;28;20032;-65
2024/02/25 00:53:45;;;;;;;1.35;0.90;;;6.90;86.20;;;;;;5048175;28;20029;-65
2024/02/25 00:56:10;;;;;;;1.90;1.00;;;6.90;86.30;;;;;;5045656;28;20029;-65
2024/02/25 00:58:37;;;;;;;1.02;0.90;;;6.90;86.30;;;;;;5045141;28;20032;-66
2024/02/25 01:01:02;;;;;;;1.00;0.90;;;6.90;86.30;;;;;;5047709;28;20013;-65
2024/02/25 01:03:28;;;;;;;1.38;0.95;;;6.90;86.40;;;;;;5045819;28;20021;-65
2024/02/25 01:05:53;;;;;;;1.55;1.05;;;7.00;86.40;;;;;;5048347;28;20028;-67
2024/02/25 01:08:19;;;;;;;2.65;1.10;;;7.00;86.40;;;;;;5044566;28;20036;-66
2024/02/25 01:10:44;;;;;;;3.75;1.23;;;6.90;86.60;;;;;;5045695;28;20082;-65
2024/02/25 01:13:10;;;;;;;1.73;1.10;;;6.80;86.90;;;;;;5042069;28;20041;-63
2024/02/25 01:15:36;;;;;;;1.95;1.20;;;6.80;87.10;;;;;;5046329;28;20013;-66
2024/02/25 01:18:01;;;;;;;2.25;1.20;;;6.80;87.20;;;;;;5008567;28;1077202;-65
2024/02/25 01:20:27;;;;;;;1.50;0.90;;;6.80;87.30;;;;;;5045723;28;20033;-64
2024/02/25 01:22:52;;;;;;;1.60;1.00;;;6.70;87.40;;;;;;5046568;28;20585;-66
2024/02/25 01:25:18;;;;;;;0.80;0.80;;;6.80;87.50;;;;;;5046001;28;20021;-64
2024/02/25 01:27:44;;;;;;;1.65;1.02;;;6.80;87.70;;;;;;5044264;28;20021;-65
2024/02/25 01:30:11;;;;;;;2.25;1.20;;;6.70;88.00;;;;;;5046143;28;20483;-65
2024/02/25 01:32:37;;;;;;;1.20;1.10;;;6.70;88.10;;;;;;5040785;28;20036;-66
2024/02/25 01:35:03;;;;;;;1.90;1.10;;;6.70;88.10;;;;;;5046192;28;20029;-66
2024/02/25 01:37:29;;;;;;;1.85;1.10;;;6.70;88.10;;;;;;5046060;28;20025;-64
2024/02/25 01:39:54;;;;;;;1.50;1.02;;;6.70;88.10;;;;;;5046049;28;20078;-65
2024/02/25 01:42:22;;;;;;;1.48;1.00;;;6.70;88.30;;;;;;5045626;28;20125;-65
2024/02/25 01:44:59;;;;;;;1.60;1.10;;;6.70;88.40;;;;;;5038872;28;20032;-65
2024/02/25 01:47:25;;;;;;;1.35;1.00;;;6.70;88.50;;;;;;5042595;28;20025;-65
2024/02/25 01:49:51;;;;;;;1.50;1.30;;;6.70;88.60;;;;;;5043982;28;20546;-65
2024/02/25 01:52:19;;;;;;;2.35;1.30;;;6.70;88.80;;;;;;5044629;28;20040;-65
2024/02/25 01:54:45;;;;;;;1.23;1.10;;;6.70;89.10;;;;;;5044178;28;20103;-64
2024/02/25 01:57:12;;;;;;;1.35;1.00;;;6.70;89.10;;;;;;5040501;28;20131;-65
2024/02/25 01:59:38;;;;;;;1.67;0.90;;;6.70;89.00;;;;;;5043228;28;20021;-65
2024/02/25 02:02:04;;;;;;;1.38;0.98;;;6.70;89.00;;;;;;5044674;28;20025;-65
2024/02/25 02:04:29;;;;;;;2.00;1.30;;;6.80;89.00;;;;;;5043833;28;20622;-63
2024/02/25 02:06:56;;;;;;;1.75;1.00;;;6.70;89.00;;;;;;5046943;28;20036;-63
2024/02/25 02:09:22;;;;;;;1.60;0.95;;;6.70;89.20;;;;;;5045801;28;20151;-65
2024/02/25 02:11:58;;;;;;;1.27;1.10;;;6.80;89.20;;;;;;5046804;28;20106;-65
2024/02/25 02:14:23;;;;;;;1.10;1.00;;;6.80;89.10;;;;;;5047224;28;20454;-64
2024/02/25 02:16:49;;;;;;;1.45;1.10;;;6.80;89.00;;;;;;5047569;28;20100;-65
2024/02/25 02:19:14;;;;;;;1.63;1.20;;;6.80;89.30;;;;;;5050039;28;20494;-64
2024/02/25 02:21:40;;;;;;;1.75;1.00;;;6.80;89.30;;;;;;5050224;28;20037;-66
2024/02/25 02:24:06;;;;;;;1.50;1.00;;;6.80;89.30;;;;;;5051122;28;20029;-65
2024/02/25 02:26:32;;;;;;;1.25;0.85;;;6.90;89.30;;;;;;5050801;28;20009;-66
2024/02/25 02:28:58;;;;;;;1.98;1.10;;;6.90;89.30;;;;;;5050390;28;20039;-65
2024/02/25 02:31:23;;;;;;;1.10;1.00;;;6.90;89.30;;;;;;5049769;28;20023;-65
2024/02/25 02:33:49;;;;;;;1.63;1.20;;;6.90;89.40;;;;;;5048565;28;20119;-66
2024/02/25 02:36:15;;;;;;;2.42;1.20;;;7.00;89.40;;;;;;5049690;28;20033;-66
2024/02/25 02:38:42;;;;;;;2.10;1.60;;;6.90;90.10;;;;;;5049811;28;20037;-65
2024/02/25 02:41:08;;;;;;;1.98;1.10;;;6.90;89.80;;;;;;5050558;28;20032;-66
2024/02/25 02:43:33;;;;;;;1.25;0.98;;;6.90;89.70;;;;;;5047999;28;20018;-66
2024/02/25 02:45:59;;;;;;;1.20;1.10;;;7.00;89.70;;;;;;5047300;28;20029;-66
2024/02/25 02:48:24;;;;;;;1.02;0.90;;;7.00;89.70;;;;;;5046364;28;20044;-65
2024/02/25 02:50:50;;;;;;;1.88;1.00;;;7.00;89.70;;;;;;5045698;28;20033;-66
2024/02/25 02:53:16;;;;;;;1.35;1.20;;;7.00;89.70;;;;;;5047305;28;20029;-66
2024/02/25 02:55:41;;;;;;;1.08;1.05;;;7.00;89.70;;;;;;5049046;28;20075;-67
2024/02/25 02:58:07;;;;;;;1.10;1.00;;;7.10;89.80;;;;;;5044833;28;20029;-64
2024/02/25 03:00:34;;;;;;;1.00;0.90;;;7.10;89.70;;;;;;5045880;28;20544;-66
2024/02/25 03:03:00;;;;;;;0.77;0.77;;;7.10;89.70;;;;;;5046598;28;20095;-64
2024/02/25 03:05:26;;;;;;;0.90;0.90;;;7.10;89.60;;;;;;5050149;28;20026;-66
2024/02/25 03:07:53;;;;;;;0.90;0.90;;;7.20;89.80;;;;;;5051152;28;20037;-65
2024/02/25 03:10:19;;;;;;;1.10;0.95;;;7.20;89.70;;;;;;5050854;28;20105;-65
2024/02/25 03:12:45;;;;;;;1.13;0.73;;;7.20;89.70;;;;;;5047377;28;20095;-65
2024/02/25 03:15:11;;;;;;;1.27;1.10;;;7.30;89.70;;;;;;5050395;28;20025;-65
2024/02/25 03:17:41;;;;;;;1.10;1.00;;;7.20;89.50;;;;;;5050484;28;20412;-64
2024/02/25 03:20:08;;;;;;;1.23;1.00;;;7.30;89.50;;;;;;5050327;28;20098;-64
2024/02/25 03:22:34;;;;;;;2.35;1.10;;;7.30;89.60;;;;;;5050648;28;20028;-64
2024/02/25 03:25:00;;;;;;;1.73;1.23;;;7.30;89.50;;;;;;5051640;28;20009;-65
2024/02/25 03:27:25;;;;;;;1.05;1.00;;;7.30;89.60;;;;;;5051231;28;20051;-64
2024/02/25 03:29:51;;;;;;;1.67;1.20;;;7.20;89.60;;;;;;5049418;28;20587;-65
2024/02/25 03:32:17;;;;;;;1.27;1.15;;;7.20;89.60;;;;;;5051526;28;20033;-65
2024/02/25 03:34:42;;;;;;;2.08;1.60;;;7.20;89.80;;;;;;5050378;28;20040;-65
2024/02/25 03:37:08;;;;;;;1.75;1.40;;;7.20;90.00;;;;;;5051486;28;20032;-65
2024/02/25 03:39:33;;;;;;;1.67;1.20;;;7.20;90.00;;;;;;5050894;28;20017;-65
2024/02/25 03:41:59;;;;;;;1.30;1.10;;;7.10;90.10;;;;;;5047743;28;20025;-65
2024/02/25 03:44:26;;;;;;;1.42;1.33;;;7.10;90.10;;;;;;5051468;28;20527;-64
2024/02/25 03:46:51;;;;;;;1.20;1.10;;;7.10;90.10;;;;;;5049348;28;20452;-64
2024/02/25 03:49:17;;;;;;;1.83;1.15;;;7.20;90.10;;;;;;5049757;28;20041;-65
2024/02/25 03:51:44;;;;;;;1.20;1.10;;;7.20;90.10;;;;;;5049415;28;20020;-64
2024/02/25 03:54:09;;;;;;;1.30;1.10;;;7.20;90.10;;;;;;5051170;28;20113;-66
2024/02/25 03:56:35;;;;;;;1.05;1.00;;;7.20;90.10;;;;;;5049893;28;20107;-65
2024/02/25 03:59:01;;;;;;;1.38;1.02;;;7.20;90.10;;;;;;5048908;28;20029;-65
2024/02/25 04:01:26;;;;;;;1.80;1.20;;;7.20;90.10;;;;;;5048875;28;20060;-65
2024/02/25 04:03:52;;;;;;;2.33;1.30;;;7.20;90.10;;;;;;5048172;28;21321;-65
2024/02/25 04:06:17;;;;;;;1.33;1.17;;;7.20;90.10;;;;;;5049303;28;20119;-65
2024/02/25 04:08:43;;;;;;;1.10;1.00;;;7.20;90.10;;;;;;5048315;28;20021;-65
2024/02/25 04:11:09;;;;;;;0.93;0.90;;;7.20;90.10;;;;;;5049850;28;20484;-65
2024/02/25 04:13:34;;;;;;;1.13;1.02;;;7.20;90.10;;;;;;5049333;28;20083;-64
2024/02/25 04:16:00;;;;;;;1.40;1.30;;;7.20;90.10;;;;;;5050051;28;20105;-65
2024/02/25 04:18:25;;;;;;;1.60;1.35;;;7.20;90.30;;;;;;5048934;28;20064;-65
2024/02/25 04:20:51;;;;;;;1.30;1.20;;;7.10;90.40;;;;;;5048972;28;20025;-63
2024/02/25 04:23:16;;;;;;;1.42;1.33;;;7.20;90.50;;;;;;5048943;28;20603;-65
2024/02/25 04:25:42;;;;;;;1.40;1.30;;;7.10;90.40;;;;;;5047116;28;20017;-64
2024/02/25 04:28:07;;;;;;;1.63;1.33;;;7.10;90.50;;;;;;5048718;28;20029;-64
2024/02/25 04:30:33;;;;;;;3.60;1.40;;;7.10;90.50;;;;;;5048251;28;20100;-63
2024/02/25 04:32:59;;;;;;;1.20;1.10;;;7.00;90.70;;;;;;5046913;28;21583;-65
2024/02/25 04:35:27;;;;;;;2.13;1.30;;;7.00;90.80;;;;;;5048960;28;20048;-66
2024/02/25 04:37:52;;;;;;;1.15;1.05;;;7.10;90.80;;;;;;5047467;28;20029;-65
2024/02/25 04:40:18;;;;;;;0.98;0.93;;;7.10;90.80;;;;;;5048330;28;20024;-64
2024/02/25 04:42:44;;;;;;;1.25;1.10;;;7.10;90.80;;;;;;5047750;28;20021;-65
2024/02/25 04:45:10;;;;;;;1.15;1.05;;;7.10;90.80;;;;;;5048503;28;20021;-65
2024/02/25 04:47:36;;;;;;;1.17;1.10;;;7.10;90.80;;;;;;5046976;28;20383;-65
2024/02/25 04:50:05;;;;;;;1.10;1.00;;;7.10;90.90;;;;;;5046695;28;20036;-65
2024/02/25 04:52:30;;;;;;;1.20;1.10;;;7.10;90.90;;;;;;5046148;28;20013;-66
2024/02/25 04:54:56;;;;;;;1.15;1.00;;;7.10;90.90;;;;;;5046928;28;20667;-65
2024/02/25 04:57:22;;;;;;;1.92;1.10;;;7.10;90.90;;;;;;5046913;28;20075;-65
2024/02/25 04:59:48;;;;;;;1.20;1.02;;;7.10;90.90;;;;;;5046362;28;20041;-65
2024/02/25 05:02:13;;;;;;;1.17;1.10;;;7.10;91.00;;;;;;5047057;28;20020;-64
2024/02/25 05:04:40;;;;;;;1.20;1.10;;;7.10;91.00;;;;;;5046705;28;20593;-64
2024/02/25 05:07:05;;;;;;;0.95;0.90;;;7.10;91.00;;;;;;5048087;28;20033;-64
2024/02/25 05:09:31;;;;;;;1.10;1.00;;;7.10;91.00;;;;;;5049061;28;20104;-66
2024/02/25 05:11:56;;;;;;;1.83;1.10;;;7.10;91.00;;;;;;5046337;28;20140;-63
2024/02/25 05:14:22;;;;;;;1.65;1.10;;;7.10;91.00;;;;;;5044649;28;20029;-64
2024/02/25 05:16:47;;;;;;;1.23;1.20;;;7.10;91.00;;;;;;5046686;28;20029;-63
2024/02/25 05:19:14;;;;;;;1.20;1.10;;;7.10;91.10;;;;;;5045276;28;20403;-64
2024/02/25 05:21:43;;;;;;;0.93;0.93;;;7.10;91.10;;;;;;5044975;28;20051;-65
2024/02/25 05:24:09;;;;;;;1.40;1.02;;;7.10;91.10;;;;;;5047290;28;20045;-66
2024/02/25 05:26:34;;;;;;;0.90;0.90;;;7.10;91.10;;;;;;5046190;28;20060;-63
2024/02/25 05:29:00;;;;;;;1.20;1.10;;;7.10;91.10;;;;;;5043498;28;20527;-64
2024/02/25 05:31:25;;;;;;;1.50;1.40;;;7.10;91.10;;;;;;5046883;28;20040;-65
2024/02/25 05:33:51;;;;;;;1.10;1.00;;;7.10;91.20;;;;;;5046432;28;20515;-65
2024/02/25 05:36:17;;;;;;;1.30;1.20;;;7.00;91.30;;;;;;5046991;28;20116;-66
2024/02/25 05:38:43;;;;;;;1.33;1.23;;;7.00;91.30;;;;;;5043895;28;20021;-66
2024/02/25 05:41:12;;;;;;;1.75;1.20;;;7.00;91.40;;;;;;5046391;28;20088;-65
2024/02/25 05:43:37;;;;;;;1.10;1.00;;;7.00;91.40;;;;;;5047661;28;20383;-66
2024/02/25 05:46:03;;;;;;;3.00;1.30;;;7.00;91.40;;;;;;5046103;28;20017;-66
2024/02/25 05:48:29;;;;;;;1.08;1.00;;;7.00;91.50;;;;;;5045318;28;20427;-64
2024/02/25 05:50:54;;;;;;;1.70;1.35;;;7.00;91.60;;;;;;5046136;28;20114;-65
2024/02/25 05:53:20;;;;;;;1.20;1.10;;;7.00;91.60;;;;;;5048830;28;20091;-66
2024/02/25 05:55:47;;;;;;;1.27;1.17;;;7.00;91.60;;;;;;5048653;28;21909;-65
2024/02/25 05:58:13;;;;;;;1.42;1.33;;;7.00;91.80;;;;;;5047230;28;20082;-66
2024/02/25 06:00:39;;;;;;;1.20;1.10;;;7.00;91.80;;;;;;5050400;28;20028;-66
2024/02/25 06:03:04;;;;;;;1.60;1.33;;;7.00;91.80;;;;;;5051050;28;20090;-65
2024/02/25 06:05:30;;;;;;;2.28;1.92;;;7.00;91.90;;;;;;5050383;28;20029;-65
2024/02/25 06:07:59;;;;;;;1.40;1.30;;;7.00;92.00;;;;;;5050766;28;20033;-66
2024/02/25 06:10:25;;;;;;;1.10;1.10;;;7.00;92.00;;;;;;5050396;28;20021;-65
2024/02/25 06:12:51;;;;;;;1.02;1.02;;;7.00;92.00;;;;;;5049869;28;20037;-65
2024/02/25 06:15:17;;;;;;;1.35;1.25;;;7.00;92.00;;;;;;5049406;28;20025;-66
2024/02/25 06:17:43;;;;;;;1.20;1.10;;;7.10;92.00;;;;;;5048117;28;20112;-67
2024/02/25 06:20:10;;;;;;;1.20;1.10;;;7.00;92.00;;;;;;5050332;28;20018;-67
2024/02/25 06:22:37;;;;;;;1.60;1.50;;;7.10;92.00;;;;;;5047264;28;20045;-66
2024/02/25 06:25:04;;;;;;;1.30;1.20;;;7.00;92.10;;;;;;5049670;28;20044;-66
2024/02/25 06:27:30;;;;;;;1.27;1.17;;;7.10;92.10;;;;;;5050423;28;20025;-67
2024/02/25 06:29:56;;;;;;;1.30;1.20;;;7.10;92.20;;;;;;5049528;28;20029;-66
2024/02/25 06:32:21;;;;;;;1.30;1.20;;;7.10;92.10;;;;;;5050243;28;20395;-66
2024/02/25 06:34:47;;;;;;;1.40;1.30;;;7.10;92.10;;;;;;5049872;28;20029;-65
2024/02/25 06:37:14;;;;;;;1.67;1.58;;;7.20;92.10;;;;;;5050973;28;20163;-66
2024/02/25 06:39:40;;;;;;;1.88;1.63;;;7.10;92.10;;;;;;5050392;28;20052;-66
2024/02/25 06:42:06;;;;;;;1.73;1.63;;;7.10;92.20;;;;;;5049225;28;20033;-65
2024/02/25 06:44:31;;;;;;;1.65;1.55;;;7.00;92.20;;;;;;5047666;28;20037;-65
2024/02/25 06:46:57;;;;;;;1.20;1.20;;;7.00;92.30;;;;;;5050006;28;20028;-67
2024/02/25 06:49:23;;;;;;;2.20;1.90;;;7.10;92.30;;;;;;5048721;28;20024;-66
2024/02/25 06:51:48;;;;;;;2.00;1.80;;;7.10;92.40;;;;;;5047380;28;20568;-66
2024/02/25 06:54:14;;;;;;;1.73;1.60;;;7.10;92.40;;;;;;5049523;28;20392;-66
2024/02/25 06:56:40;;;;;;;1.58;1.48;;;7.10;92.40;;;;;;5049573;28;20029;-69
2024/02/25 06:59:05;;;;;;;1.70;1.60;;;7.10;92.40;;;;;;5048844;28;20020;-69
2024/02/25 07:01:31;;;;;;;1.40;1.30;;;7.10;92.50;;;;;;5047629;28;20100;-69
2024/02/25 07:03:56;;;;;;;1.92;1.70;;;7.10;92.50;;;;;;5046993;28;20041;-68
2024/02/25 07:06:22;;;;;;;1.60;1.50;;;7.20;92.50;;;;;;5048242;28;20116;-67
2024/02/25 07:08:48;;;;;;;2.17;1.90;;;7.20;92.50;;;;;;5046727;28;20079;-67
2024/02/25 07:11:17;;;;;;;2.00;1.80;;;7.20;92.50;;;;;;5049039;28;20505;-67
2024/02/25 07:13:43;;;;;;;3.20;1.90;;;7.20;92.60;;;;;;5048967;28;20395;-67
2024/02/25 07:16:09;;;;;;;1.70;1.60;;;7.10;92.60;;;;;;5048218;28;20033;-68
2024/02/25 07:18:35;;;;;;;1.50;1.30;;;7.20;92.70;;;;;;5047869;28;20025;-64
2024/02/25 07:21:00;;;;;;;3.33;2.10;;;7.20;92.60;;;;;;5047894;28;20025;-64
2024/02/25 07:23:26;;;;;;;2.38;2.00;;;7.20;92.60;;;;;;5045016;28;20480;-64
2024/02/25 07:25:51;;;;;;;1.70;1.60;;;7.20;92.60;;;;;;5047690;28;20104;-64
2024/02/25 07:28:17;;;;;;;3.90;2.17;;;7.20;92.60;;;;;;5048043;28;20033;-64
2024/02/25 07:30:42;;;;;;;1.83;1.70;;;7.20;92.70;;;;;;5048272;28;20040;-64
2024/02/25 07:33:09;;;;;;;1.85;1.65;;;7.20;92.80;;;;;;5048136;28;20020;-64
2024/02/25 07:35:35;;;;;;;2.60;2.25;;;7.20;92.80;;;;;;5046127;28;20087;-65
2024/02/25 07:38:01;;;;;;;2.58;1.80;;;7.20;92.80;;;;;;5047576;28;20476;-65
2024/02/25 07:40:26;;;;;;;1.95;1.77;;;7.20;92.90;;;;;;5048076;28;20025;-66
2024/02/25 07:42:52;;;;;;;3.10;2.33;;;7.20;92.90;;;;;;5048153;28;20020;-66
2024/02/25 07:45:17;;;;;;;4.20;2.10;;;7.20;93.30;;;;;;5049067;28;20361;-65
2024/02/25 07:47:43;;;;;;;2.83;2.40;;;7.20;93.10;;;;;;5047355;28;20124;-65
2024/02/25 07:50:09;;;;;;;2.22;2.03;;;7.20;93.20;;;;;;5047165;28;20021;-65
2024/02/25 07:52:34;;;;;;;3.83;2.72;;;7.20;93.20;;;;;;5047719;28;20048;-64
2024/02/25 07:55:00;;;;;;;2.67;2.40;;;7.20;93.20;;;;;;5047551;28;20051;-63
2024/02/25 07:57:33;;;;;;;2.25;1.90;;;7.20;93.30;;;;;;5049503;28;20818;-65
2024/02/25 07:59:58;;;;;;;2.97;2.25;;;7.20;93.40;;;;;;5047486;28;20020;-65
2024/02/25 08:02:24;;;;;;;2.35;2.10;;;7.30;93.40;;;;;;5048785;28;20028;-65
2024/02/25 08:04:49;;;;;;;2.35;2.15;;;7.30;93.30;;;;;;5045609;28;20021;-65
2024/02/25 08:07:15;;;;;;;2.38;2.10;;;7.30;93.30;;;;;;5046518;28;20033;-65
2024/02/25 08:09:40;;;;;;;2.85;2.22;;;7.30;93.40;;;;;;5046415;28;20491;-65
2024/02/25 08:12:06;;;;;;;2.75;2.30;;;7.30;93.50;;;;;;5044191;28;20495;-65
2024/02/25 08:14:32;;;;;;;2.22;2.03;;;7.30;93.50;;;;;;5046743;28;20572;-65
2024/02/25 08:16:57;;;;;;;2.45;2.00;;;7.30;93.50;;;;;;5041520;28;20441;-65
2024/02/25 08:19:23;;;;;;;3.03;2.20;;;7.40;93.50;;;;;;5047327;28;20079;-65
2024/02/25 08:21:48;;;;;;;1.65;1.55;;;7.40;93.50;;;;;;5047598;28;20021;-66
2024/02/25 08:24:14;;;;;;;2.60;2.30;;;7.40;93.40;;;;;;5048038;28;20483;-66
2024/02/25 08:26:39;;;;;;;2.40;1.90;;;7.40;93.50;;;;;;5047255;28;20104;-66
2024/02/25 08:29:05;;;;;;;1.73;1.55;;;7.50;93.50;;;;;;5047197;28;20036;-66
2024/02/25 08:31:30;;;;;;;2.38;1.98;;;7.50;93.60;;;;;;5047363;28;20025;-66
2024/02/25 08:33:56;;;;;;;2.13;1.88;;;7.60;93.40;;;;;;5044141;28;20029;-65
2024/02/25 08:36:22;;;;;;;3.17;2.30;;;7.60;93.40;;;;;;5045444;28;20491;-66
2024/02/25 08:38:48;;;;;;;2.20;2.00;;;7.60;93.40;;;;;;5047066;28;20384;-67
2024/02/25 08:41:13;;;;;;;3.15;1.77;;;7.60;93.40;;;;;;5045947;28;21071;-66
2024/02/25 08:43:39;;;;;;;2.00;1.80;;;7.70;93.40;;;;;;5045041;28;20025;-65
2024/02/25 08:46:05;;;;;;;2.42;2.05;;;7.70;93.30;;;;;;5046665;28;20108;-65
2024/02/25 08:48:30;;;;;;;3.40;2.22;;;7.80;93.30;;;;;;5047305;28;20029;-65
2024/02/25 08:50:56;;;;;;;2.00;1.80;;;7.80;93.20;;;;;;5045723;28;20377;-65
2024/02/25 08:53:21;;;;;;;1.70;1.50;;;7.80;93.20;;;;;;5046353;28;20035;-66
2024/02/25 08:55:47;;;;;;;2.28;2.08;;;7.80;93.10;;;;;;5046084;28;20498;-66
2024/02/25 08:58:13;;;;;;;1.95;1.60;;;7.80;93.10;;;;;;5046437;28;20056;-65
2024/02/25 09:00:40;;;;;;;2.03;1.70;;;7.80;93.00;;;;;;5047370;28;20071;-66
2024/02/25 09:03:06;;;;;;;1.50;1.40;;;7.80;93.00;;;;;;5047275;28;20112;-66
2024/02/25 09:05:31;;;;;;;1.77;1.58;;;7.80;92.90;;;;;;5047588;28;20717;-65
2024/02/25 09:07:59;;;;;;;2.35;1.73;;;7.90;92.90;;;;;;5046956;28;20033;-66
2024/02/25 09:10:24;;;;;;;3.05;2.17;;;7.90;92.80;;;;;;5047101;28;20450;-66
2024/02/25 09:12:50;;;;;;;2.38;1.90;;;7.80;92.70;;;;;;5043346;28;20066;-66
2024/02/25 09:15:19;;;;;;;3.53;2.40;;;7.80;92.60;;;;;;5045550;28;20063;-65
2024/02/25 09:17:45;;;;;;;4.15;2.80;;;7.90;92.60;;;;;;5046412;28;20086;-66
2024/02/25 09:20:11;;;;;;;2.28;1.85;;;7.90;92.50;;;;;;5046255;28;20021;-66
2024/02/25 09:22:37;;;;;;;3.05;2.13;;;8.00;92.50;;;;;;5047708;28;20025;-65
2024/02/25 09:25:03;;;;;;;2.53;2.22;;;8.00;92.40;;;;;;5043454;28;20078;-66
2024/02/25 09:27:29;;;;;;;2.25;1.92;;;8.00;92.40;;;;;;5044972;28;20017;-67
2024/02/25 09:29:55;;;;;;;4.30;3.03;;;8.10;92.30;;;;;;5047187;28;20024;-66
2024/02/25 09:32:21;;;;;;;2.97;2.60;;;8.10;92.30;;;;;;5043939;28;20067;-67
2024/02/25 09:34:46;;;;;;;1.92;1.80;;;8.10;92.30;;;;;;5050078;28;20029;-66
2024/02/25 09:37:12;;;;;;;2.20;1.98;;;8.10;92.30;;;;;;5048694;28;20044;-66
2024/02/25 09:39:37;;;;;;;1.95;1.70;;;8.30;92.20;;;;;;5047044;28;20491;-65
2024/02/25 09:42:06;;;;;;;2.00;1.70;;;8.30;92.10;;;;;;5048051;28;20661;-65
2024/02/25 09:44:33;;;;;;;2.78;2.20;;;8.30;92.10;;;;;;5049245;28;20021;-66
2024/02/25 09:47:00;;;;;;;3.72;2.10;;;8.30;92.00;;;;;;5043784;28;20055;-66
2024/02/25 09:49:28;;;;;;;2.13;1.88;;;8.30;92.00;;;;;;5052501;28;20025;-66
2024/02/25 09:51:54;;;;;;;2.38;1.70;;;8.30;92.00;;;;;;5048603;28;20123;-66
2024/02/25 09:54:20;;;;;;;2.47;2.08;;;8.40;91.90;;;;;;5042897;28;20123;-67
2024/02/25 09:56:51;;;;;;;2.95;2.40;;;8.40;91.90;;;;;;5057450;28;20036;-67
2024/02/25 09:59:20;;;;;;;;;;;8.40;92.10;;;;;;5048057;28;20077;-67
2024/02/25 10:01:47;;;;;;;2.03;1.52;;;8.40;91.80;;;;;;5051614;28;19908;-66
2024/02/25 10:04:13;;;;;;;2.35;1.40;;;8.40;91.80;;;;;;5048375;28;20043;-66
2024/02/25 10:06:39;;;;;;;3.08;1.35;;;8.50;91.90;;;;;;5049055;28;20083;-68
2024/02/25 10:09:08;;;;;;;2.13;1.83;;;8.50;91.80;;;;;;5047624;28;20036;-67
2024/02/25 10:11:34;;;;;;;3.08;2.60;;;8.50;91.70;;;;;;5048195;28;20025;-67
2024/02/25 10:13:59;;;;;;;2.60;2.10;;;8.50;91.60;;;;;;5047665;28;20025;-68
2024/02/25 10:16:25;;;;;;;3.28;2.17;;;8.50;91.60;;;;;;5044121;28;20029;-67
2024/02/25 10:18:51;;;;;;;2.63;2.22;;;8.50;91.50;;;;;;5047236;28;20590;-67
2024/02/25 10:21:20;;;;;;;3.20;2.17;;;8.50;91.50;;;;;;5047625;28;20033;-67
2024/02/25 10:23:52;;;;;;;3.15;2.05;;;8.60;91.50;;;;;;5045688;28;20025;-65
2024/02/25 10:26:20;;;;;;;2.10;1.50;;;8.70;91.40;;;;;;5046990;28;20103;-66
2024/02/25 10:28:46;;;;;;;1.75;1.60;;;8.80;91.30;;;;;;5045736;28;20487;-66
2024/02/25 10:31:14;;;;;;;1.48;1.38;;;8.90;91.50;;;;;;5045607;28;20446;-68
2024/02/25 10:33:41;;;;;;;2.05;1.70;;;9.00;91.10;;;;;;5044545;28;20021;-65
2024/02/25 10:36:09;;;;;;;3.65;2.17;;;9.10;91.00;;;;;;5043899;28;20048;-65
2024/02/25 10:38:39;;;;;;;2.55;1.95;;;9.10;90.80;;;;;;5047402;28;20559;-66
2024/02/25 10:41:06;;;;;;;1.92;1.45;;;9.10;90.80;;;;;;5046607;28;20055;-66
2024/02/25 10:43:34;;;;;;;3.50;2.60;;;9.10;90.80;;;;;;5046616;28;20013;-66
2024/02/25 10:46:05;;;;;;;3.53;2.60;;;9.10;90.60;;;;;;5042101;28;20585;-65
2024/02/25 10:48:31;;;;;;;4.03;2.45;;;9.10;90.40;;;;;;5043857;28;20048;-66
2024/02/25 10:50:59;;;;;;;3.22;2.65;;;9.10;90.40;;;;;;5042976;28;20607;-66
2024/02/25 10:53:28;;;;;;;5.53;2.58;;;9.20;90.40;;;;;;5047456;28;20021;-66
2024/02/25 10:55:58;;;;;;;4.53;3.70;;;9.30;90.30;;;;;;5046573;28;20450;-66
2024/02/25 10:58:25;;;;;;;5.10;3.47;;;9.20;90.00;;;;;;5046116;28;20388;-67
2024/02/25 11:00:53;;;;;;;3.33;2.67;;;9.10;90.30;;;;;;5043525;28;20023;-65
2024/02/25 11:03:20;;;;;;;4.22;2.55;;;9.10;90.20;;;;;;5045174;28;20017;-66
2024/02/25 11:05:46;;;;;;;3.20;2.55;;;9.10;90.20;;;;;;5046846;28;20040;-66
2024/02/25 11:08:11;;;;;;;2.90;2.58;;;9.10;90.50;;;;;;5044754;28;20025;-66
2024/02/25 11:10:37;;;;;;;3.00;2.40;;;9.10;90.30;;;;;;5044495;28;20083;-66
2024/02/25 11:13:03;;;;;;;3.50;2.30;;;9.10;90.30;;;;;;5044923;28;20522;-66
2024/02/25 11:15:32;;;;;;;2.42;2.20;;;9.20;90.30;;;;;;5043886;28;21416;-66
2024/02/25 11:18:00;;;;;;;2.85;2.10;;;9.20;90.40;;;;;;5043423;28;20029;-66
2024/02/25 11:20:28;;;;;;;2.10;1.83;;;9.20;90.40;;;;;;5046401;28;20063;-66
2024/02/25 11:22:55;;;;;;;2.50;2.00;;;9.30;90.50;;;;;;5047777;28;20655;-67
2024/02/25 11:25:26;;;;;;;2.35;2.15;;;9.40;90.50;;;;;;5048053;28;20021;-66
2024/02/25 11:27:56;;;;;;;4.35;3.47;;;9.40;90.40;;;;;;5048054;28;20073;-66
2024/02/25 11:30:22;;;;;;;5.13;3.80;;;9.30;90.20;;;;;;5046753;28;20025;-66
2024/02/25 11:32:48;;;;;;;3.60;2.80;;;9.20;90.10;;;;;;5047619;28;20036;-66
2024/02/25 11:35:15;;;;;;;6.53;3.63;;;9.20;90.30;;;;;;5045502;28;20368;-66
2024/02/25 11:37:44;;;;;;;4.50;3.13;;;9.20;90.20;;;;;;5045575;28;20526;-66
2024/02/25 11:40:10;;;;;;;3.40;2.17;;;9.10;90.20;;;;;;5045953;28;20610;-66
2024/02/25 11:42:38;;;;;;;2.90;2.22;;;9.20;90.40;;;;;;5046747;28;20066;-66
2024/02/25 11:45:04;;;;;;;4.95;3.42;;;9.20;90.40;;;;;;5046370;28;20021;-65
2024/02/25 11:47:30;;;;;;;6.13;3.90;;;9.30;90.40;;;;;;5047588;28;20024;-65
2024/02/25 11:49:58;;;;;;;6.90;4.20;;;9.30;90.40;;;;;;5046545;28;20494;-66
2024/02/25 11:52:24;;;;;;;5.22;3.13;;;9.20;90.20;;;;;;5046227;28;20119;-66
2024/02/25 11:54:51;;;;;;;4.70;3.28;;;9.20;90.30;;;;;;5045618;28;20428;-65
2024/02/25 11:57:18;;;;;;;5.05;3.22;;;9.30;90.20;;;;;;5042556;28;20278;-66
2024/02/25 11:59:44;;;;;;;4.90;3.50;;;9.20;90.10;;;;;;5044499;28;20434;-66
2024/02/25 12:02:10;;;;;;;5.03;3.90;;;9.20;90.10;;;;;;5044647;28;20563;-66
2024/02/25 12:04:36;;;;;;;5.40;3.03;;;9.20;90.10;;;;;;5047215;28;20021;-66
2024/02/25 12:07:04;;;;;;;4.30;2.72;;;9.10;90.20;;;;;;5046034;28;20093;-66
2024/02/25 12:09:30;;;;;;;4.30;3.00;;;9.30;90.30;;;;;;5045509;28;20028;-65
2024/02/25 12:11:56;;;;;;;3.85;2.25;;;9.40;90.20;;;;;;5045220;28;20044;-66
2024/02/25 12:14:22;;;;;;;3.63;2.70;;;9.50;90.20;;;;;;5045608;28;20094;-67
2024/02/25 12:16:49;;;;;;;4.18;3.05;;;9.60;90.10;;;;;;5044372;28;20037;-67
2024/02/25 12:19:16;;;;;;;5.03;2.58;;;9.60;90.10;;;;;;5044095;28;20033;-67
2024/02/25 12:21:43;;;;;;;2.28;2.05;;;9.60;90.10;;;;;;5044697;28;20029;-66
2024/02/25 12:24:10;;;;;;;2.65;2.30;;;9.70;90.10;;;;;;5046059;28;20096;-66
2024/02/25 12:26:55;;;;;;;3.75;2.50;;;9.80;90.00;;;;;;5045001;28;20036;-66
2024/02/25 12:29:23;;;;;;;2.50;2.03;;;10.00;90.00;;;;;;5046159;28;20036;-65
2024/02/25 12:31:48;;;;;;;2.55;2.03;;;10.10;89.80;;;;;;5042942;28;20033;-66
2024/02/25 12:34:15;;;;;;;3.88;3.05;;;10.20;89.50;;;;;;5041194;28;20223;-66
2024/02/25 12:36:44;;;;;;;4.72;2.90;;;10.20;89.10;;;;;;5037531;28;20910;-66
2024/02/25 12:39:12;;;;;;;4.32;2.60;;;10.20;89.60;;;;;;5038677;28;20045;-66
2024/02/25 12:41:39;;;;;;;4.82;2.80;;;10.20;88.50;;;;;;5041195;28;20031;-66
2024/02/25 12:44:07;;;;;;;4.15;2.50;;;10.20;88.10;;;;;;5043848;28;20665;-67
2024/02/25 12:46:33;;;;;;;2.58;2.10;;;10.20;87.90;;;;;;5044725;28;20357;-66
2024/02/25 12:49:11;;;;;;;1.88;1.60;;;10.30;87.60;;;;;;5046531;28;20032;-67
2024/02/25 12:51:36;;;;;;;3.28;1.50;;;10.40;88.00;;;;;;5040415;28;20494;-67